sensor_id;sensor_type;location;lat;lon;timestamp;P1;durP1;ratioP1;P2;durP2;ratioP2
31618;SDS011;18230;51.502;7.108;2022-10-31T00:03:13;28.15;;;9.65;;
31618;SDS011;18230;51.502;7.108;2022-10-31T00:08:14;23.92;;;10.23;;
31618;SDS011;18230;51.502;7.108;2022-10-31T00:13:16;22.52;;;9.65;;
31618;SDS011;18230;51.502;7.108;2022-10-31T00:18:17;26.63;;;9.93;;
31618;SDS011;18230;51.502;7.108;2022-10-31T00:23:18;20.20;;;9.20;;
31618;SDS011;18230;51.502;7.108;2022-10-31T00:28:18;20.67;;;8.27;;
31618;SDS011;18230;51.502;7.108;2022-10-31T00:33:19;29.73;;;10.15;;
31618;SDS011;18230;51.502;7.108;2022-10-31T00:38:19;24.50;;;9.30;;
31618;SDS011;18230;51.502;7.108;2022-10-31T00:43:20;21.98;;;8.95;;
31618;SDS011;18230;51.502;7.108;2022-10-31T00:48:21;22.73;;;9.82;;
31618;SDS011;18230;51.502;7.108;2022-10-31T00:53:22;22.75;;;10.30;;
31618;SDS011;18230;51.502;7.108;2022-10-31T00:58:22;18.48;;;8.95;;
31618;SDS011;18230;51.502;7.108;2022-10-31T01:03:23;19.63;;;9.75;;
31618;SDS011;18230;51.502;7.108;2022-10-31T01:08:26;23.60;;;10.52;;
31618;SDS011;18230;51.502;7.108;2022-10-31T01:13:27;20.60;;;10.48;;
31618;SDS011;18230;51.502;7.108;2022-10-31T01:18:28;28.10;;;10.45;;
31618;SDS011;18230;51.502;7.108;2022-10-31T01:23:29;19.58;;;9.43;;
31618;SDS011;18230;51.502;7.108;2022-10-31T01:28:30;23.90;;;9.80;;
31618;SDS011;18230;51.502;7.108;2022-10-31T01:33:30;23.80;;;9.45;;
31618;SDS011;18230;51.502;7.108;2022-10-31T01:38:31;23.80;;;10.05;;
31618;SDS011;18230;51.502;7.108;2022-10-31T01:49:17;21.55;;;9.85;;
31618;SDS011;18230;51.502;7.108;2022-10-31T01:54:23;20.70;;;8.80;;
31618;SDS011;18230;51.502;7.108;2022-10-31T01:59:29;18.58;;;9.73;;
31618;SDS011;18230;51.502;7.108;2022-10-31T02:04:32;20.05;;;8.48;;
31618;SDS011;18230;51.502;7.108;2022-10-31T02:09:34;22.23;;;10.50;;
31618;SDS011;18230;51.502;7.108;2022-10-31T02:14:36;21.73;;;11.27;;
31618;SDS011;18230;51.502;7.108;2022-10-31T02:24:53;24.73;;;9.75;;
31618;SDS011;18230;51.502;7.108;2022-10-31T02:30:20;21.83;;;10.27;;
31618;SDS011;18230;51.502;7.108;2022-10-31T02:35:35;18.33;;;9.25;;
31618;SDS011;18230;51.502;7.108;2022-10-31T02:51:21;18.45;;;8.82;;
31618;SDS011;18230;51.502;7.108;2022-10-31T02:56:22;23.42;;;9.85;;
31618;SDS011;18230;51.502;7.108;2022-10-31T03:01:42;25.90;;;9.30;;
31618;SDS011;18230;51.502;7.108;2022-10-31T03:07:10;25.52;;;10.35;;
31618;SDS011;18230;51.502;7.108;2022-10-31T03:17:42;23.35;;;10.27;;
31618;SDS011;18230;51.502;7.108;2022-10-31T03:22:48;26.33;;;10.05;;
31618;SDS011;18230;51.502;7.108;2022-10-31T03:27:48;28.30;;;10.30;;
31618;SDS011;18230;51.502;7.108;2022-10-31T03:32:51;21.90;;;10.57;;
31618;SDS011;18230;51.502;7.108;2022-10-31T03:37:55;21.35;;;11.10;;
31618;SDS011;18230;51.502;7.108;2022-10-31T03:43:00;24.73;;;10.90;;
31618;SDS011;18230;51.502;7.108;2022-10-31T03:48:07;20.35;;;9.48;;
31618;SDS011;18230;51.502;7.108;2022-10-31T03:53:13;21.60;;;9.35;;
31618;SDS011;18230;51.502;7.108;2022-10-31T04:03:28;31.02;;;10.77;;
31618;SDS011;18230;51.502;7.108;2022-10-31T04:08:32;23.63;;;11.07;;
31618;SDS011;18230;51.502;7.108;2022-10-31T04:13:38;25.55;;;12.05;;
31618;SDS011;18230;51.502;7.108;2022-10-31T04:18:40;23.77;;;10.80;;
31618;SDS011;18230;51.502;7.108;2022-10-31T04:23:41;28.42;;;11.63;;
31618;SDS011;18230;51.502;7.108;2022-10-31T04:28:41;27.98;;;11.27;;
31618;SDS011;18230;51.502;7.108;2022-10-31T04:33:42;23.45;;;11.43;;
31618;SDS011;18230;51.502;7.108;2022-10-31T04:38:43;30.58;;;12.25;;
31618;SDS011;18230;51.502;7.108;2022-10-31T04:43:43;25.42;;;10.38;;
31618;SDS011;18230;51.502;7.108;2022-10-31T04:48:44;22.13;;;10.65;;
31618;SDS011;18230;51.502;7.108;2022-10-31T04:53:45;27.35;;;11.80;;
31618;SDS011;18230;51.502;7.108;2022-10-31T04:58:45;24.05;;;12.57;;
31618;SDS011;18230;51.502;7.108;2022-10-31T05:03:46;23.90;;;10.48;;
31618;SDS011;18230;51.502;7.108;2022-10-31T05:08:46;21.05;;;11.88;;
31618;SDS011;18230;51.502;7.108;2022-10-31T05:13:47;28.95;;;11.50;;
31618;SDS011;18230;51.502;7.108;2022-10-31T05:18:48;23.83;;;12.13;;
31618;SDS011;18230;51.502;7.108;2022-10-31T05:23:48;31.90;;;13.32;;
31618;SDS011;18230;51.502;7.108;2022-10-31T05:28:49;21.25;;;11.07;;
31618;SDS011;18230;51.502;7.108;2022-10-31T05:33:49;24.90;;;12.20;;
31618;SDS011;18230;51.502;7.108;2022-10-31T05:38:50;24.95;;;11.63;;
31618;SDS011;18230;51.502;7.108;2022-10-31T05:43:51;30.83;;;12.63;;
31618;SDS011;18230;51.502;7.108;2022-10-31T05:48:51;22.10;;;11.57;;
31618;SDS011;18230;51.502;7.108;2022-10-31T05:53:52;25.15;;;12.48;;
31618;SDS011;18230;51.502;7.108;2022-10-31T05:58:52;26.85;;;11.13;;
31618;SDS011;18230;51.502;7.108;2022-10-31T06:03:53;24.38;;;11.63;;
31618;SDS011;18230;51.502;7.108;2022-10-31T06:08:54;28.00;;;11.18;;
31618;SDS011;18230;51.502;7.108;2022-10-31T06:13:54;23.88;;;11.60;;
31618;SDS011;18230;51.502;7.108;2022-10-31T06:18:55;22.23;;;10.73;;
31618;SDS011;18230;51.502;7.108;2022-10-31T06:23:56;24.25;;;11.18;;
31618;SDS011;18230;51.502;7.108;2022-10-31T06:28:56;24.25;;;11.35;;
31618;SDS011;18230;51.502;7.108;2022-10-31T06:33:57;26.33;;;12.32;;
31618;SDS011;18230;51.502;7.108;2022-10-31T06:38:59;28.00;;;13.27;;
31618;SDS011;18230;51.502;7.108;2022-10-31T06:44:00;32.58;;;13.73;;
31618;SDS011;18230;51.502;7.108;2022-10-31T06:49:01;36.35;;;14.27;;
31618;SDS011;18230;51.502;7.108;2022-10-31T06:54:02;26.85;;;13.00;;
31618;SDS011;18230;51.502;7.108;2022-10-31T06:59:02;28.95;;;12.90;;
31618;SDS011;18230;51.502;7.108;2022-10-31T07:04:03;29.85;;;13.15;;
31618;SDS011;18230;51.502;7.108;2022-10-31T07:09:04;26.13;;;12.85;;
31618;SDS011;18230;51.502;7.108;2022-10-31T07:14:04;32.55;;;12.88;;
31618;SDS011;18230;51.502;7.108;2022-10-31T07:19:05;31.15;;;13.57;;
31618;SDS011;18230;51.502;7.108;2022-10-31T07:24:06;40.13;;;13.60;;
31618;SDS011;18230;51.502;7.108;2022-10-31T07:29:06;31.92;;;13.93;;
31618;SDS011;18230;51.502;7.108;2022-10-31T07:34:07;33.35;;;14.38;;
31618;SDS011;18230;51.502;7.108;2022-10-31T07:39:07;29.25;;;14.35;;
31618;SDS011;18230;51.502;7.108;2022-10-31T07:44:08;32.00;;;14.95;;
31618;SDS011;18230;51.502;7.108;2022-10-31T07:49:09;39.08;;;16.63;;
31618;SDS011;18230;51.502;7.108;2022-10-31T07:54:09;36.28;;;16.17;;
31618;SDS011;18230;51.502;7.108;2022-10-31T07:59:10;31.85;;;16.75;;
31618;SDS011;18230;51.502;7.108;2022-10-31T08:04:11;33.95;;;15.38;;
31618;SDS011;18230;51.502;7.108;2022-10-31T08:09:11;36.45;;;17.08;;
31618;SDS011;18230;51.502;7.108;2022-10-31T08:14:12;28.83;;;15.00;;
31618;SDS011;18230;51.502;7.108;2022-10-31T08:19:12;31.52;;;15.30;;
31618;SDS011;18230;51.502;7.108;2022-10-31T08:24:13;33.05;;;16.45;;
31618;SDS011;18230;51.502;7.108;2022-10-31T08:29:14;33.53;;;16.13;;
31618;SDS011;18230;51.502;7.108;2022-10-31T08:34:15;34.85;;;17.23;;
31618;SDS011;18230;51.502;7.108;2022-10-31T08:39:15;37.97;;;16.60;;
31618;SDS011;18230;51.502;7.108;2022-10-31T08:44:16;43.67;;;18.67;;
31618;SDS011;18230;51.502;7.108;2022-10-31T08:49:17;34.05;;;15.95;;
31618;SDS011;18230;51.502;7.108;2022-10-31T08:54:17;42.55;;;17.20;;
31618;SDS011;18230;51.502;7.108;2022-10-31T08:59:18;38.88;;;16.95;;
31618;SDS011;18230;51.502;7.108;2022-10-31T09:04:19;33.30;;;16.75;;
31618;SDS011;18230;51.502;7.108;2022-10-31T09:09:19;41.67;;;18.15;;
31618;SDS011;18230;51.502;7.108;2022-10-31T09:14:20;30.67;;;16.85;;
31618;SDS011;18230;51.502;7.108;2022-10-31T09:19:20;44.97;;;18.40;;
31618;SDS011;18230;51.502;7.108;2022-10-31T09:24:21;44.45;;;18.95;;
31618;SDS011;18230;51.502;7.108;2022-10-31T09:29:22;40.67;;;19.00;;
31618;SDS011;18230;51.502;7.108;2022-10-31T09:34:22;36.45;;;18.80;;
31618;SDS011;18230;51.502;7.108;2022-10-31T09:39:23;50.55;;;20.48;;
31618;SDS011;18230;51.502;7.108;2022-10-31T09:49:42;46.20;;;20.83;;
31618;SDS011;18230;51.502;7.108;2022-10-31T10:00:21;37.83;;;20.63;;
31618;SDS011;18230;51.502;7.108;2022-10-31T10:05:28;42.22;;;20.52;;
31618;SDS011;18230;51.502;7.108;2022-10-31T10:21:25;47.50;;;22.92;;
31618;SDS011;18230;51.502;7.108;2022-10-31T10:26:41;51.05;;;21.45;;
31618;SDS011;18230;51.502;7.108;2022-10-31T10:31:46;49.15;;;21.08;;
31618;SDS011;18230;51.502;7.108;2022-10-31T10:36:56;41.28;;;20.88;;
31618;SDS011;18230;51.502;7.108;2022-10-31T10:42:01;41.10;;;20.75;;
31618;SDS011;18230;51.502;7.108;2022-10-31T10:47:33;42.80;;;21.58;;
31618;SDS011;18230;51.502;7.108;2022-10-31T10:58:00;42.53;;;21.95;;
31618;SDS011;18230;51.502;7.108;2022-10-31T11:03:07;40.95;;;21.55;;
31618;SDS011;18230;51.502;7.108;2022-10-31T11:08:09;45.45;;;21.10;;
31618;SDS011;18230;51.502;7.108;2022-10-31T11:18:14;42.35;;;21.45;;
31618;SDS011;18230;51.502;7.108;2022-10-31T11:23:23;34.45;;;19.55;;
31618;SDS011;18230;51.502;7.108;2022-10-31T11:28:25;39.70;;;20.73;;
31618;SDS011;18230;51.502;7.108;2022-10-31T11:33:31;44.53;;;19.98;;
31618;SDS011;18230;51.502;7.108;2022-10-31T11:38:42;39.55;;;19.13;;
31618;SDS011;18230;51.502;7.108;2022-10-31T11:43:50;40.85;;;17.85;;
31618;SDS011;18230;51.502;7.108;2022-10-31T11:48:54;44.45;;;21.40;;
31618;SDS011;18230;51.502;7.108;2022-10-31T11:53:57;37.35;;;19.02;;
31618;SDS011;18230;51.502;7.108;2022-10-31T11:59:02;37.17;;;17.55;;
31618;SDS011;18230;51.502;7.108;2022-10-31T12:04:11;34.53;;;16.20;;
31618;SDS011;18230;51.502;7.108;2022-10-31T12:14:36;40.33;;;17.80;;
31618;SDS011;18230;51.502;7.108;2022-10-31T12:30:19;38.55;;;15.82;;
31618;SDS011;18230;51.502;7.108;2022-10-31T12:41:07;32.15;;;13.93;;
31618;SDS011;18230;51.502;7.108;2022-10-31T12:46:31;30.92;;;12.98;;
31618;SDS011;18230;51.502;7.108;2022-10-31T12:51:59;25.15;;;11.40;;
31618;SDS011;18230;51.502;7.108;2022-10-31T13:07:31;34.45;;;11.43;;
31618;SDS011;18230;51.502;7.108;2022-10-31T13:12:37;23.17;;;10.30;;
31618;SDS011;18230;51.502;7.108;2022-10-31T13:17:42;33.60;;;10.18;;
31618;SDS011;18230;51.502;7.108;2022-10-31T13:33:08;35.83;;;9.60;;
31618;SDS011;18230;51.502;7.108;2022-10-31T13:38:23;23.45;;;9.30;;
31618;SDS011;18230;51.502;7.108;2022-10-31T13:49:23;20.17;;;8.07;;
31618;SDS011;18230;51.502;7.108;2022-10-31T13:54:33;23.58;;;7.78;;
31618;SDS011;18230;51.502;7.108;2022-10-31T13:59:36;22.60;;;8.85;;
31618;SDS011;18230;51.502;7.108;2022-10-31T14:04:38;17.30;;;7.18;;
31618;SDS011;18230;51.502;7.108;2022-10-31T14:10:03;25.55;;;7.72;;
31618;SDS011;18230;51.502;7.108;2022-10-31T14:15:17;14.98;;;6.28;;
31618;SDS011;18230;51.502;7.108;2022-10-31T14:25:42;21.02;;;6.93;;
31618;SDS011;18230;51.502;7.108;2022-10-31T14:30:50;18.20;;;6.40;;
31618;SDS011;18230;51.502;7.108;2022-10-31T14:46:42;16.42;;;7.70;;
31618;SDS011;18230;51.502;7.108;2022-10-31T14:51:47;22.42;;;6.47;;
31618;SDS011;18230;51.502;7.108;2022-10-31T14:56:54;12.45;;;5.60;;
31618;SDS011;18230;51.502;7.108;2022-10-31T15:01:59;22.30;;;8.63;;
31618;SDS011;18230;51.502;7.108;2022-10-31T15:07:16;14.75;;;5.63;;
31618;SDS011;18230;51.502;7.108;2022-10-31T15:17:25;17.75;;;6.47;;
31618;SDS011;18230;51.502;7.108;2022-10-31T15:22:26;20.63;;;6.75;;
31618;SDS011;18230;51.502;7.108;2022-10-31T15:27:29;21.08;;;6.65;;
31618;SDS011;18230;51.502;7.108;2022-10-31T15:32:31;24.05;;;9.90;;
31618;SDS011;18230;51.502;7.108;2022-10-31T15:37:32;22.13;;;6.85;;
31618;SDS011;18230;51.502;7.108;2022-10-31T15:42:34;20.45;;;7.03;;
31618;SDS011;18230;51.502;7.108;2022-10-31T15:53:01;23.20;;;6.55;;
31618;SDS011;18230;51.502;7.108;2022-10-31T15:58:09;17.77;;;5.78;;
31618;SDS011;18230;51.502;7.108;2022-10-31T16:08:23;20.55;;;8.02;;
31618;SDS011;18230;51.502;7.108;2022-10-31T16:13:30;16.70;;;6.93;;
31618;SDS011;18230;51.502;7.108;2022-10-31T16:18:35;31.27;;;8.77;;
31618;SDS011;18230;51.502;7.108;2022-10-31T16:23:38;29.48;;;8.85;;
31618;SDS011;18230;51.502;7.108;2022-10-31T16:28:50;21.23;;;7.93;;
31618;SDS011;18230;51.502;7.108;2022-10-31T16:34:01;21.35;;;8.82;;
31618;SDS011;18230;51.502;7.108;2022-10-31T16:39:10;20.70;;;8.67;;
31618;SDS011;18230;51.502;7.108;2022-10-31T16:44:14;22.45;;;9.20;;
31618;SDS011;18230;51.502;7.108;2022-10-31T16:49:25;25.95;;;9.20;;
31618;SDS011;18230;51.502;7.108;2022-10-31T16:54:27;20.38;;;9.05;;
31618;SDS011;18230;51.502;7.108;2022-10-31T16:59:29;20.38;;;9.07;;
31618;SDS011;18230;51.502;7.108;2022-10-31T17:04:31;34.35;;;9.13;;
31618;SDS011;18230;51.502;7.108;2022-10-31T17:09:32;25.85;;;8.10;;
31618;SDS011;18230;51.502;7.108;2022-10-31T17:14:33;28.33;;;9.63;;
31618;SDS011;18230;51.502;7.108;2022-10-31T17:19:34;23.85;;;9.20;;
31618;SDS011;18230;51.502;7.108;2022-10-31T17:24:34;25.38;;;10.23;;
31618;SDS011;18230;51.502;7.108;2022-10-31T17:29:35;37.30;;;13.57;;
31618;SDS011;18230;51.502;7.108;2022-10-31T17:34:36;29.77;;;11.70;;
31618;SDS011;18230;51.502;7.108;2022-10-31T17:39:36;23.83;;;11.13;;
31618;SDS011;18230;51.502;7.108;2022-10-31T17:44:40;35.05;;;12.20;;
31618;SDS011;18230;51.502;7.108;2022-10-31T17:49:41;25.70;;;12.02;;
31618;SDS011;18230;51.502;7.108;2022-10-31T17:54:41;30.83;;;12.75;;
31618;SDS011;18230;51.502;7.108;2022-10-31T17:59:42;27.27;;;11.90;;
31618;SDS011;18230;51.502;7.108;2022-10-31T18:04:43;30.17;;;12.38;;
31618;SDS011;18230;51.502;7.108;2022-10-31T18:09:45;33.72;;;14.57;;
31618;SDS011;18230;51.502;7.108;2022-10-31T18:14:46;30.85;;;13.70;;
31618;SDS011;18230;51.502;7.108;2022-10-31T18:19:47;30.52;;;12.55;;
31618;SDS011;18230;51.502;7.108;2022-10-31T18:24:48;28.42;;;10.52;;
31618;SDS011;18230;51.502;7.108;2022-10-31T18:29:48;26.50;;;10.43;;
31618;SDS011;18230;51.502;7.108;2022-10-31T18:34:49;17.15;;;8.23;;
31618;SDS011;18230;51.502;7.108;2022-10-31T18:39:49;24.48;;;6.93;;
31618;SDS011;18230;51.502;7.108;2022-10-31T18:44:50;15.25;;;4.25;;
31618;SDS011;18230;51.502;7.108;2022-10-31T18:49:51;15.18;;;4.80;;
31618;SDS011;18230;51.502;7.108;2022-10-31T18:54:51;11.30;;;4.20;;
31618;SDS011;18230;51.502;7.108;2022-10-31T18:59:52;13.88;;;4.20;;
31618;SDS011;18230;51.502;7.108;2022-10-31T19:04:52;14.20;;;4.10;;
31618;SDS011;18230;51.502;7.108;2022-10-31T19:09:53;17.48;;;4.05;;
31618;SDS011;18230;51.502;7.108;2022-10-31T19:14:54;12.40;;;4.32;;
31618;SDS011;18230;51.502;7.108;2022-10-31T19:19:54;14.85;;;4.72;;
31618;SDS011;18230;51.502;7.108;2022-10-31T19:30:15;10.75;;;4.05;;
31618;SDS011;18230;51.502;7.108;2022-10-31T19:35:15;14.32;;;4.45;;
31618;SDS011;18230;51.502;7.108;2022-10-31T19:40:16;15.55;;;4.70;;
31618;SDS011;18230;51.502;7.108;2022-10-31T19:45:17;17.10;;;4.28;;
31618;SDS011;18230;51.502;7.108;2022-10-31T19:50:18;19.38;;;4.45;;
31618;SDS011;18230;51.502;7.108;2022-10-31T19:55:19;15.90;;;5.10;;
31618;SDS011;18230;51.502;7.108;2022-10-31T20:00:20;9.48;;;4.30;;
31618;SDS011;18230;51.502;7.108;2022-10-31T20:05:20;19.08;;;4.22;;
31618;SDS011;18230;51.502;7.108;2022-10-31T20:10:21;11.10;;;4.13;;
31618;SDS011;18230;51.502;7.108;2022-10-31T20:15:22;11.30;;;4.38;;
31618;SDS011;18230;51.502;7.108;2022-10-31T20:20:23;10.95;;;4.78;;
31618;SDS011;18230;51.502;7.108;2022-10-31T20:25:24;13.25;;;4.05;;
31618;SDS011;18230;51.502;7.108;2022-10-31T20:30:30;18.90;;;4.60;;
31618;SDS011;18230;51.502;7.108;2022-10-31T20:35:36;13.85;;;5.50;;
31618;SDS011;18230;51.502;7.108;2022-10-31T20:40:37;11.23;;;4.82;;
31618;SDS011;18230;51.502;7.108;2022-10-31T20:45:41;8.75;;;4.25;;
31618;SDS011;18230;51.502;7.108;2022-10-31T20:50:41;15.07;;;4.45;;
31618;SDS011;18230;51.502;7.108;2022-10-31T20:55:42;15.80;;;4.82;;
31618;SDS011;18230;51.502;7.108;2022-10-31T21:00:43;11.77;;;5.18;;
31618;SDS011;18230;51.502;7.108;2022-10-31T21:05:54;14.40;;;4.22;;
31618;SDS011;18230;51.502;7.108;2022-10-31T21:10:59;11.95;;;3.83;;
31618;SDS011;18230;51.502;7.108;2022-10-31T21:16:00;16.23;;;4.47;;
31618;SDS011;18230;51.502;7.108;2022-10-31T21:21:21;13.25;;;3.92;;
31618;SDS011;18230;51.502;7.108;2022-10-31T21:26:25;16.45;;;4.45;;
31618;SDS011;18230;51.502;7.108;2022-10-31T21:31:26;15.93;;;3.83;;
31618;SDS011;18230;51.502;7.108;2022-10-31T21:36:27;17.92;;;4.38;;
31618;SDS011;18230;51.502;7.108;2022-10-31T21:41:28;12.15;;;4.50;;
31618;SDS011;18230;51.502;7.108;2022-10-31T21:46:29;14.07;;;4.47;;
31618;SDS011;18230;51.502;7.108;2022-10-31T21:51:33;12.20;;;4.30;;
31618;SDS011;18230;51.502;7.108;2022-10-31T21:56:35;10.43;;;4.07;;
31618;SDS011;18230;51.502;7.108;2022-10-31T22:01:36;14.52;;;4.22;;
31618;SDS011;18230;51.502;7.108;2022-10-31T22:06:37;10.95;;;3.60;;
31618;SDS011;18230;51.502;7.108;2022-10-31T22:11:39;13.43;;;4.22;;
31618;SDS011;18230;51.502;7.108;2022-10-31T22:16:40;14.38;;;4.03;;
31618;SDS011;18230;51.502;7.108;2022-10-31T22:21:42;13.02;;;4.03;;
31618;SDS011;18230;51.502;7.108;2022-10-31T22:26:45;15.95;;;3.95;;
31618;SDS011;18230;51.502;7.108;2022-10-31T22:31:47;15.82;;;3.80;;
31618;SDS011;18230;51.502;7.108;2022-10-31T22:36:48;11.23;;;3.80;;
31618;SDS011;18230;51.502;7.108;2022-10-31T22:41:49;16.30;;;4.90;;
31618;SDS011;18230;51.502;7.108;2022-10-31T22:46:50;15.20;;;4.38;;
31618;SDS011;18230;51.502;7.108;2022-10-31T22:51:50;14.68;;;4.35;;
31618;SDS011;18230;51.502;7.108;2022-10-31T22:56:51;10.77;;;4.30;;
31618;SDS011;18230;51.502;7.108;2022-10-31T23:01:52;13.20;;;4.82;;
31618;SDS011;18230;51.502;7.108;2022-10-31T23:06:53;15.80;;;4.15;;
31618;SDS011;18230;51.502;7.108;2022-10-31T23:11:53;12.23;;;4.40;;
31618;SDS011;18230;51.502;7.108;2022-10-31T23:17:14;15.38;;;4.43;;
31618;SDS011;18230;51.502;7.108;2022-10-31T23:22:17;12.73;;;4.00;;
31618;SDS011;18230;51.502;7.108;2022-10-31T23:27:19;12.02;;;4.28;;
31618;SDS011;18230;51.502;7.108;2022-10-31T23:32:42;17.63;;;4.45;;
31618;SDS011;18230;51.502;7.108;2022-10-31T23:37:42;12.77;;;4.55;;
31618;SDS011;18230;51.502;7.108;2022-10-31T23:42:43;13.75;;;4.03;;
31618;SDS011;18230;51.502;7.108;2022-10-31T23:47:44;15.32;;;3.95;;
31618;SDS011;18230;51.502;7.108;2022-10-31T23:52:44;17.95;;;5.03;;
31618;SDS011;18230;51.502;7.108;2022-10-31T23:57:45;11.35;;;3.90;;
